B Gas Summit — 9HA3934 — position and weather

sailwx.info

Track history (hours):
 
Tides and Currents Weather Stations Pressure Air Temp Water Temp Dewpoint Dewpoint Depression Visibility Wind Speed Wind Dir Waves Ship Positions

B Gas Summit

Last reported at 2018-Feb-19 15:52 UTC. Time now 2018-Feb-20 13:46 UTC.
Position N 38°41' W 009°14'.

Length 95 m; draft 6 m.

Type: Tanker. MMSI: 256508000.

Date/timePositionNaut miles runAvg speedWind from/ knotsBaromVisibWave heightAir tempDewpointWater temp
2018-Feb-19 15:52N 38°41' W 009°14'0 0.2
2018-Feb-19 15:30N 38°41' W 009°14'4 7.0
2018-Feb-19 15:00N 38°41' W 009°18'5 9.2
2018-Feb-19 14:30N 38°41' W 009°24'5 9.8
2018-Feb-19 14:00N 38°38' W 009°29'612.7
2018-Feb-19 13:30N 38°37' W 009°37'612.6
2018-Feb-19 13:00N 38°36' W 009°45'612.4
2018-Feb-19 12:30N 38°35' W 009°53'612.5
2018-Feb-19 12:00N 38°34' W 010°01'612.6
2018-Feb-19 11:30N 38°33' W 010°09'713.6
2018-Feb-19 11:00N 38°39' W 010°11'713.3
2018-Feb-19 10:30N 38°46' W 010°12'713.6
2018-Feb-19 10:00N 38°53' W 010°12'713.6
2018-Feb-19 09:30N 38°60' W 010°12'714.0
2018-Feb-19 09:00N 39°07' W 010°12'713.4
2018-Feb-19 08:30N 39°13' W 010°12'713.1
2018-Feb-19 08:00N 39°20' W 010°12'613.1
2018-Feb-19 07:30N 39°27' W 010°12'612.7
2018-Feb-19 07:00N 39°33' W 010°12'  
2018-Feb-13 23:03N 43°47' W 006°06'1 9.7
2018-Feb-13 22:59N 43°47' W 006°05'5 9.8
2018-Feb-13 22:28N 43°47' W 005°58'13 9.5
2018-Feb-13 21:06N 43°46' W 005°40'1 9.3
2018-Feb-13 20:59N 43°46' W 005°39'4 9.0
2018-Feb-13 20:30N 43°45' W 005°33'4 8.9
2018-Feb-13 20:00N 43°45' W 005°27'5 9.2
2018-Feb-13 19:30N 43°45' W 005°20'4 8.9
2018-Feb-13 19:00N 43°44' W 005°14'4 7.9
2018-Feb-13 18:28N 43°43' W 005°09'4 8.4
2018-Feb-13 17:58N 43°43' W 005°03'3 7.6
2018-Feb-13 17:30N 43°43' W 004°58'4 7.5
2018-Feb-13 16:58N 43°43' W 004°52'39 5.4
2018-Feb-13 09:48N 43°37' W 003°60'3 9.9
2018-Feb-13 09:30N 43°37' W 003°56'611.0
2018-Feb-13 09:00N 43°36' W 003°48'611.5
2018-Feb-13 08:30N 43°35' W 003°40'612.0
2018-Feb-13 08:01N 43°35' W 003°32'611.9
2018-Feb-13 07:31N 43°34' W 003°24'611.9
2018-Feb-13 07:01N 43°33' W 003°16'612.2
2018-Feb-13 06:30N 43°28' W 003°10'511.0
2018-Feb-13 06:01N 43°24' W 003°06'2 4.3
2018-Feb-13 05:28N 43°22' W 003°06'0 0.0
2018-Feb-13 04:58N 43°22' W 003°06'0 0.0
2018-Feb-12 10:33N 43°22' W 003°06'0 0.0
2018-Feb-12 10:30N 43°22' W 003°06'0 0.0
2018-Feb-12 10:00N 43°22' W 003°06'0 0.5
2018-Feb-12 09:30N 43°22' W 003°06'2 3.6
2018-Feb-12 09:00N 43°24' W 003°05'5 9.4
2018-Feb-12 08:30N 43°28' W 003°09'612.2
2018-Feb-12 08:00N 43°32' W 003°14'2 4.7
2018-Feb-12 07:30N 43°34' W 003°17'1 1.9
2018-Feb-12 07:00N 43°33' W 003°16'1 1.8
2018-Feb-12 06:30N 43°33' W 003°15'1 1.7
2018-Feb-12 06:00N 43°32' W 003°14'1 2.0
2018-Feb-12 05:30N 43°32' W 003°13'1 2.1
2018-Feb-12 05:00N 43°31' W 003°12'1 2.5
2018-Feb-12 04:30N 43°30' W 003°11'1 2.2
2018-Feb-12 04:00N 43°29' W 003°10'510.4
2018-Feb-12 03:30N 43°33' W 003°15'2 3.8
2018-Feb-12 02:59N 43°34' W 003°17'1 2.4
2018-Feb-12 02:30N 43°33' W 003°16'1 2.2
2018-Feb-12 02:00N 43°32' W 003°15'1 2.4
2018-Feb-12 01:30N 43°32' W 003°13'1 1.9
2018-Feb-12 01:00N 43°31' W 003°12'1 1.8
2018-Feb-12 00:30N 43°30' W 003°12'1 2.0
2018-Feb-12 00:00N 43°30' W 003°11'1 1.9
2018-Feb-11 23:30N 43°29' W 003°10'1 1.5
2018-Feb-11 23:00N 43°28' W 003°09'0 0.5
2018-Feb-11 22:30N 43°28' W 003°09'0 0.3
2018-Feb-11 22:00N 43°28' W 003°09'0 0.6
2018-Feb-11 21:30N 43°28' W 003°08'0 0.9
2018-Feb-11 21:00N 43°28' W 003°08'1 2.6
2018-Feb-11 20:31N 43°28' W 003°09'612.5
2018-Feb-11 20:00N 43°33' W 003°15'2 3.1
2018-Feb-11 19:20N 43°35' W 003°17'1 2.2
2018-Feb-11 18:59N 43°34' W 003°16'1 2.2
2018-Feb-11 18:30N 43°33' W 003°15'1 2.0
2018-Feb-11 18:00N 43°33' W 003°14'1 2.2
2018-Feb-11 17:30N 43°32' W 003°13'1 1.9
2018-Feb-11 17:00N 43°31' W 003°13'1 1.2
2018-Feb-11 16:30N 43°30' W 003°13'1 1.2
2018-Feb-11 16:00N 43°30' W 003°12'1 1.6
2018-Feb-11 15:30N 43°29' W 003°12'1 2.1
2018-Feb-11 15:00N 43°28' W 003°11'1 2.0
2018-Feb-11 14:30N 43°28' W 003°10'1 2.3
2018-Feb-11 14:00N 43°27' W 003°09'1 2.4
2018-Feb-11 13:30N 43°26' W 003°07'1 1.1
2018-Feb-11 13:00N 43°26' W 003°08'2 4.2
2018-Feb-11 12:30N 43°28' W 003°09'3 5.0
2018-Feb-11 12:00N 43°30' W 003°11'3 5.0
2018-Feb-11 11:30N 43°32' W 003°13'2 4.1
2018-Feb-11 11:00N 43°34' W 003°15'4 7.5
2018-Feb-11 10:30N 43°31' W 003°11'1 1.4
2018-Feb-11 10:00N 43°32' W 003°12'2 4.9
2018-Feb-11 09:30N 43°33' W 003°14'1 1.1
2018-Feb-11 08:43N 43°34' W 003°15'1 2.5
2018-Feb-11 08:30N 43°34' W 003°15'1 2.6
2018-Feb-11 08:00N 43°33' W 003°14'1 2.4
2018-Feb-11 07:30N 43°32' W 003°13'1 2.1
2018-Feb-11 07:00N 43°31' W 003°12'1 1.6
2018-Feb-11 06:30N 43°30' W 003°11'1 1.1
2018-Feb-11 06:00N 43°30' W 003°11'1 1.8
2018-Feb-11 05:30N 43°29' W 003°10'2 4.9
2018-Feb-11 05:00N 43°31' W 003°12'510.5
2018-Feb-11 04:30N 43°35' W 003°17'1 1.3
2018-Feb-11 04:00N 43°34' W 003°17'1 1.1
2018-Feb-11 03:30N 43°34' W 003°16'1 1.3
2018-Feb-11 03:00N 43°33' W 003°16'1 1.5
2018-Feb-11 02:30N 43°32' W 003°15'1 1.5
2018-Feb-11 02:00N 43°32' W 003°15'1 1.7
2018-Feb-11 01:30N 43°31' W 003°14'1 2.3
2018-Feb-11 01:00N 43°30' W 003°13'1 2.2
2018-Feb-11 00:30N 43°29' W 003°12'1 2.3
2018-Feb-11 00:00N 43°29' W 003°11'4 7.1
2018-Feb-10 23:30N 43°32' W 003°13'5 9.8
2018-Feb-10 23:00N 43°36' W 003°16'1 1.7
2018-Feb-10 22:15N 43°35' W 003°14'1 1.9
2018-Feb-10 21:42N 43°34' W 003°14'1 2.0
2018-Feb-10 21:20N 43°34' W 003°13'1 2.0
2018-Feb-10 21:00N 43°33' W 003°13'1 2.0
2018-Feb-10 20:30N 43°32' W 003°12'1 1.5
2018-Feb-10 20:00N 43°32' W 003°12'1 1.4
2018-Feb-10 19:30N 43°31' W 003°11'1 1.4
2018-Feb-10 19:00N 43°30' W 003°11'1 1.7
2018-Feb-10 18:30N 43°30' W 003°10'1 2.5
2018-Feb-10 18:00N 43°29' W 003°09'4 7.2
2018-Feb-10 17:30N 43°32' W 003°12'4 8.3
2018-Feb-10 17:00N 43°35' W 003°16'1 1.4
2018-Feb-10 16:29N 43°34' W 003°16'1 2.2
2018-Feb-10 16:00N 43°33' W 003°15'1 2.6
2018-Feb-10 15:30N 43°32' W 003°14'1 2.4
2018-Feb-10 15:00N 43°31' W 003°13'1 2.0
2018-Feb-10 14:30N 43°30' W 003°12'1 2.3
2018-Feb-10 14:00N 43°29' W 003°11'1 2.2
2018-Feb-10 13:31N 43°29' W 003°10'2 3.9
2018-Feb-10 13:00N 43°30' W 003°12'2 4.8
2018-Feb-10 12:30N 43°32' W 003°14'1 1.7
2018-Feb-10 11:51N 43°33' W 003°14'3 9.8
2018-Feb-10 11:30N 43°30' W 003°12'2 4.9
2018-Feb-10 11:00N 43°28' W 003°11'1 2.9
2018-Feb-10 10:30N 43°29' W 003°12'2 4.7
2018-Feb-10 10:00N 43°31' W 003°14'2 4.8
2018-Feb-10 09:30N 43°33' W 003°16'1 1.7
2018-Feb-10 09:00N 43°33' W 003°17'1 2.7
2018-Feb-10 08:30N 43°32' W 003°16'3 5.2
2018-Feb-10 08:00N 43°30' W 003°13'0 0.7
2018-Feb-10 07:30N 43°30' W 003°13'3 5.9
2018-Feb-10 07:00N 43°33' W 003°15'1 1.4
2018-Feb-10 06:30N 43°33' W 003°16'1 2.5
2018-Feb-10 06:00N 43°32' W 003°15'1 2.5
2018-Feb-10 05:30N 43°31' W 003°14'1 2.5
2018-Feb-10 05:00N 43°30' W 003°12'1 2.7
2018-Feb-10 04:30N 43°29' W 003°11'2 3.4
2018-Feb-10 04:00N 43°28' W 003°10'4 8.2
2018-Feb-10 03:31N 43°31' W 003°14'611.8
2018-Feb-10 03:00N 43°34' W 003°21'612.7
2018-Feb-10 02:30N 43°35' W 003°30'612.7
2018-Feb-10 02:00N 43°35' W 003°38'612.3
2018-Feb-10 01:30N 43°36' W 003°47'  
Track history (hours):
 
Tides and Currents Weather Stations Pressure Air Temp Water Temp Dewpoint Dewpoint Depression Visibility Wind Speed Wind Dir Waves Ship Positions

B Gas Summit

Last reported at 2018-Feb-19 15:52 UTC. Time now 2018-Feb-20 13:46 UTC.
Position N 38°41' W 009°14'.

Length 95 m; draft 6 m.

Type: Tanker. MMSI: 256508000.

Date/timePositionNaut miles runAvg speedWind from/ knotsBaromVisibWave heightAir tempDewpointWater temp
2018-Feb-19 15:52N 38°41' W 009°14'0 0.2
2018-Feb-19 15:30N 38°41' W 009°14'4 7.0
2018-Feb-19 15:00N 38°41' W 009°18'5 9.2
2018-Feb-19 14:30N 38°41' W 009°24'5 9.8
2018-Feb-19 14:00N 38°38' W 009°29'612.7
2018-Feb-19 13:30N 38°37' W 009°37'612.6
2018-Feb-19 13:00N 38°36' W 009°45'612.4
2018-Feb-19 12:30N 38°35' W 009°53'612.5
2018-Feb-19 12:00N 38°34' W 010°01'612.6
2018-Feb-19 11:30N 38°33' W 010°09'713.6
2018-Feb-19 11:00N 38°39' W 010°11'713.3
2018-Feb-19 10:30N 38°46' W 010°12'713.6
2018-Feb-19 10:00N 38°53' W 010°12'713.6
2018-Feb-19 09:30N 38°60' W 010°12'714.0
2018-Feb-19 09:00N 39°07' W 010°12'713.4
2018-Feb-19 08:30N 39°13' W 010°12'713.1
2018-Feb-19 08:00N 39°20' W 010°12'613.1
2018-Feb-19 07:30N 39°27' W 010°12'612.7
2018-Feb-19 07:00N 39°33' W 010°12'  
2018-Feb-13 23:03N 43°47' W 006°06'1 9.7
2018-Feb-13 22:59N 43°47' W 006°05'5 9.8
2018-Feb-13 22:28N 43°47' W 005°58'13 9.5
2018-Feb-13 21:06N 43°46' W 005°40'1 9.3
2018-Feb-13 20:59N 43°46' W 005°39'4 9.0
2018-Feb-13 20:30N 43°45' W 005°33'4 8.9
2018-Feb-13 20:00N 43°45' W 005°27'5 9.2
2018-Feb-13 19:30N 43°45' W 005°20'4 8.9
2018-Feb-13 19:00N 43°44' W 005°14'4 7.9
2018-Feb-13 18:28N 43°43' W 005°09'4 8.4
2018-Feb-13 17:58N 43°43' W 005°03'3 7.6
2018-Feb-13 17:30N 43°43' W 004°58'4 7.5
2018-Feb-13 16:58N 43°43' W 004°52'39 5.4
2018-Feb-13 09:48N 43°37' W 003°60'3 9.9
2018-Feb-13 09:30N 43°37' W 003°56'611.0
2018-Feb-13 09:00N 43°36' W 003°48'611.5
2018-Feb-13 08:30N 43°35' W 003°40'612.0
2018-Feb-13 08:01N 43°35' W 003°32'611.9
2018-Feb-13 07:31N 43°34' W 003°24'611.9
2018-Feb-13 07:01N 43°33' W 003°16'612.2
2018-Feb-13 06:30N 43°28' W 003°10'511.0
2018-Feb-13 06:01N 43°24' W 003°06'2 4.3
2018-Feb-13 05:28N 43°22' W 003°06'0 0.0
2018-Feb-13 04:58N 43°22' W 003°06'0 0.0
2018-Feb-12 10:33N 43°22' W 003°06'0 0.0
2018-Feb-12 10:30N 43°22' W 003°06'0 0.0
2018-Feb-12 10:00N 43°22' W 003°06'0 0.5
2018-Feb-12 09:30N 43°22' W 003°06'2 3.6
2018-Feb-12 09:00N 43°24' W 003°05'5 9.4
2018-Feb-12 08:30N 43°28' W 003°09'612.2
2018-Feb-12 08:00N 43°32' W 003°14'2 4.7
2018-Feb-12 07:30N 43°34' W 003°17'1 1.9
2018-Feb-12 07:00N 43°33' W 003°16'1 1.8
2018-Feb-12 06:30N 43°33' W 003°15'1 1.7
2018-Feb-12 06:00N 43°32' W 003°14'1 2.0
2018-Feb-12 05:30N 43°32' W 003°13'1 2.1
2018-Feb-12 05:00N 43°31' W 003°12'1 2.5
2018-Feb-12 04:30N 43°30' W 003°11'1 2.2
2018-Feb-12 04:00N 43°29' W 003°10'510.4
2018-Feb-12 03:30N 43°33' W 003°15'2 3.8
2018-Feb-12 02:59N 43°34' W 003°17'1 2.4
2018-Feb-12 02:30N 43°33' W 003°16'1 2.2
2018-Feb-12 02:00N 43°32' W 003°15'1 2.4
2018-Feb-12 01:30N 43°32' W 003°13'1 1.9
2018-Feb-12 01:00N 43°31' W 003°12'1 1.8
2018-Feb-12 00:30N 43°30' W 003°12'1 2.0
2018-Feb-12 00:00N 43°30' W 003°11'1 1.9
2018-Feb-11 23:30N 43°29' W 003°10'1 1.5
2018-Feb-11 23:00N 43°28' W 003°09'0 0.5
2018-Feb-11 22:30N 43°28' W 003°09'0 0.3
2018-Feb-11 22:00N 43°28' W 003°09'0 0.6
2018-Feb-11 21:30N 43°28' W 003°08'0 0.9
2018-Feb-11 21:00N 43°28' W 003°08'1 2.6
2018-Feb-11 20:31N 43°28' W 003°09'612.5
2018-Feb-11 20:00N 43°33' W 003°15'2 3.1
2018-Feb-11 19:20N 43°35' W 003°17'1 2.2
2018-Feb-11 18:59N 43°34' W 003°16'1 2.2
2018-Feb-11 18:30N 43°33' W 003°15'1 2.0
2018-Feb-11 18:00N 43°33' W 003°14'1 2.2
2018-Feb-11 17:30N 43°32' W 003°13'1 1.9
2018-Feb-11 17:00N 43°31' W 003°13'1 1.2
2018-Feb-11 16:30N 43°30' W 003°13'1 1.2
2018-Feb-11 16:00N 43°30' W 003°12'1 1.6
2018-Feb-11 15:30N 43°29' W 003°12'1 2.1
2018-Feb-11 15:00N 43°28' W 003°11'1 2.0
2018-Feb-11 14:30N 43°28' W 003°10'1 2.3
2018-Feb-11 14:00N 43°27' W 003°09'1 2.4
2018-Feb-11 13:30N 43°26' W 003°07'1 1.1
2018-Feb-11 13:00N 43°26' W 003°08'2 4.2
2018-Feb-11 12:30N 43°28' W 003°09'3 5.0
2018-Feb-11 12:00N 43°30' W 003°11'3 5.0
2018-Feb-11 11:30N 43°32' W 003°13'2 4.1
2018-Feb-11 11:00N 43°34' W 003°15'4 7.5
2018-Feb-11 10:30N 43°31' W 003°11'1 1.4
2018-Feb-11 10:00N 43°32' W 003°12'2 4.9
2018-Feb-11 09:30N 43°33' W 003°14'1 1.1
2018-Feb-11 08:43N 43°34' W 003°15'1 2.5
2018-Feb-11 08:30N 43°34' W 003°15'1 2.6
2018-Feb-11 08:00N 43°33' W 003°14'1 2.4
2018-Feb-11 07:30N 43°32' W 003°13'1 2.1
2018-Feb-11 07:00N 43°31' W 003°12'1 1.6
2018-Feb-11 06:30N 43°30' W 003°11'1 1.1
2018-Feb-11 06:00N 43°30' W 003°11'1 1.8
2018-Feb-11 05:30N 43°29' W 003°10'2 4.9
2018-Feb-11 05:00N 43°31' W 003°12'510.5
2018-Feb-11 04:30N 43°35' W 003°17'1 1.3
2018-Feb-11 04:00N 43°34' W 003°17'1 1.1
2018-Feb-11 03:30N 43°34' W 003°16'1 1.3
2018-Feb-11 03:00N 43°33' W 003°16'1 1.5
2018-Feb-11 02:30N 43°32' W 003°15'1 1.5
2018-Feb-11 02:00N 43°32' W 003°15'1 1.7
2018-Feb-11 01:30N 43°31' W 003°14'1 2.3
2018-Feb-11 01:00N 43°30' W 003°13'1 2.2
2018-Feb-11 00:30N 43°29' W 003°12'1 2.3
2018-Feb-11 00:00N 43°29' W 003°11'4 7.1
2018-Feb-10 23:30N 43°32' W 003°13'5 9.8
2018-Feb-10 23:00N 43°36' W 003°16'1 1.7
2018-Feb-10 22:15N 43°35' W 003°14'1 1.9
2018-Feb-10 21:42N 43°34' W 003°14'1 2.0
2018-Feb-10 21:20N 43°34' W 003°13'1 2.0
2018-Feb-10 21:00N 43°33' W 003°13'1 2.0
2018-Feb-10 20:30N 43°32' W 003°12'1 1.5
2018-Feb-10 20:00N 43°32' W 003°12'1 1.4
2018-Feb-10 19:30N 43°31' W 003°11'1 1.4
2018-Feb-10 19:00N 43°30' W 003°11'1 1.7
2018-Feb-10 18:30N 43°30' W 003°10'1 2.5
2018-Feb-10 18:00N 43°29' W 003°09'4 7.2
2018-Feb-10 17:30N 43°32' W 003°12'4 8.3
2018-Feb-10 17:00N 43°35' W 003°16'1 1.4
2018-Feb-10 16:29N 43°34' W 003°16'1 2.2
2018-Feb-10 16:00N 43°33' W 003°15'1 2.6
2018-Feb-10 15:30N 43°32' W 003°14'1 2.4
2018-Feb-10 15:00N 43°31' W 003°13'1 2.0
2018-Feb-10 14:30N 43°30' W 003°12'1 2.3
2018-Feb-10 14:00N 43°29' W 003°11'1 2.2
2018-Feb-10 13:31N 43°29' W 003°10'2 3.9
2018-Feb-10 13:00N 43°30' W 003°12'2 4.8
2018-Feb-10 12:30N 43°32' W 003°14'1 1.7
2018-Feb-10 11:51N 43°33' W 003°14'3 9.8
2018-Feb-10 11:30N 43°30' W 003°12'2 4.9
2018-Feb-10 11:00N 43°28' W 003°11'1 2.9
2018-Feb-10 10:30N 43°29' W 003°12'2 4.7
2018-Feb-10 10:00N 43°31' W 003°14'2 4.8
2018-Feb-10 09:30N 43°33' W 003°16'1 1.7
2018-Feb-10 09:00N 43°33' W 003°17'1 2.7
2018-Feb-10 08:30N 43°32' W 003°16'3 5.2
2018-Feb-10 08:00N 43°30' W 003°13'0 0.7
2018-Feb-10 07:30N 43°30' W 003°13'3 5.9
2018-Feb-10 07:00N 43°33' W 003°15'1 1.4
2018-Feb-10 06:30N 43°33' W 003°16'1 2.5
2018-Feb-10 06:00N 43°32' W 003°15'1 2.5
2018-Feb-10 05:30N 43°31' W 003°14'1 2.5
2018-Feb-10 05:00N 43°30' W 003°12'1 2.7
2018-Feb-10 04:30N 43°29' W 003°11'2 3.4
2018-Feb-10 04:00N 43°28' W 003°10'4 8.2
2018-Feb-10 03:31N 43°31' W 003°14'611.8
2018-Feb-10 03:00N 43°34' W 003°21'612.7
2018-Feb-10 02:30N 43°35' W 003°30'612.7
2018-Feb-10 02:00N 43°35' W 003°38'612.3
2018-Feb-10 01:30N 43°36' W 003°47'  

Dump ship's entire track history